Time;durP1;ratioP1;P1;durP2;ratioP2;P2;SDS_P1;SDS_P2;PMS_P1;PMS_P2;Temp;Humidity;BMP_temperature;BMP_pressure;BME280_temperature;BME280_humidity;BME280_pressure;Samples;Min_cycle;Max_cycle;Signal;HPM_P1;HPM_P2
2024/03/18 00:00:59;;;;;;;23.50;16.10;;;;;;;14.19;56.53;101503.90;110447;1259;22303;-59
2024/03/18 00:03:27;;;;;;;21.90;15.30;;;;;;;14.20;56.51;101507.35;110520;1256;22955;-59
2024/03/18 00:05:55;;;;;;;20.70;15.70;;;;;;;14.21;56.44;101511.01;110445;1258;22319;-59
2024/03/18 00:08:22;;;;;;;20.60;15.20;;;;;;;14.22;56.51;101511.84;110539;1269;22133;-60
2024/03/18 00:10:50;;;;;;;19.40;14.80;;;;;;;14.24;56.48;101508.83;110220;1261;23078;-59
2024/03/18 00:13:17;;;;;;;19.90;15.50;;;;;;;14.25;56.55;101505.14;110590;1253;23106;-59
2024/03/18 00:15:44;;;;;;;21.30;15.20;;;;;;;14.26;56.49;101501.45;110478;1258;23146;-59
2024/03/18 00:18:12;;;;;;;21.10;15.70;;;;;;;14.28;56.45;101498.80;110460;1259;23071;-59
2024/03/18 00:20:39;;;;;;;19.20;15.30;;;;;;;14.29;56.45;101502.43;110533;1256;22443;-59
2024/03/18 00:23:07;;;;;;;17.60;14.80;;;;;;;14.29;56.49;101500.86;109672;1257;1002543;-59
2024/03/18 00:25:35;;;;;;;19.50;14.70;;;;;;;14.30;56.46;101497.16;110498;1258;22831;-59
2024/03/18 00:28:02;;;;;;;19.40;14.70;;;;;;;14.29;56.49;101491.27;110577;1259;22170;-59
2024/03/18 00:30:29;;;;;;;21.60;14.70;;;;;;;14.32;56.51;101490.14;110454;1254;22246;-59
2024/03/18 00:32:57;;;;;;;21.40;14.70;;;;;;;14.33;56.53;101489.80;110315;1259;23027;-60
2024/03/18 00:35:25;;;;;;;18.50;15.20;;;;;;;14.32;56.53;101487.02;110491;1257;22135;-59
2024/03/18 00:37:52;;;;;;;23.60;14.90;;;;;;;14.33;56.52;101481.23;110515;1254;22372;-59
2024/03/18 00:40:19;;;;;;;22.90;15.80;;;;;;;14.34;56.40;101474.76;110571;1258;22401;-59
2024/03/18 00:42:47;;;;;;;20.40;15.00;;;;;;;14.35;56.43;101475.59;110544;1258;22286;-59
2024/03/18 00:45:16;;;;;;;22.60;14.60;;;;;;;14.38;56.42;101474.13;110440;1259;22776;-59
2024/03/18 00:47:43;;;;;;;22.50;14.90;;;;;;;14.39;56.36;101470.77;110229;1276;22388;-59
2024/03/18 00:50:11;;;;;;;20.60;14.60;;;;;;;14.40;56.25;101472.85;110473;1257;22420;-59
2024/03/18 00:52:38;;;;;;;22.50;14.50;;;;;;;14.42;56.15;101467.22;110454;1259;22147;-59
2024/03/18 00:55:10;;;;;;;22.50;14.80;;;;;;;14.43;56.19;101462.81;110305;1259;22365;-59
2024/03/18 00:57:38;;;;;;;18.50;14.70;;;;;;;14.45;55.97;101457.52;110531;1258;22146;-59
2024/03/18 01:00:11;;;;;;;19.10;14.90;;;;;;;14.46;56.04;101453.13;110549;1259;22125;-59
2024/03/18 01:02:39;;;;;;;20.50;14.20;;;;;;;14.47;55.98;101449.61;110275;1260;23155;-59
2024/03/18 01:05:09;;;;;;;21.80;15.00;;;;;;;14.45;55.86;101451.77;110559;1256;22284;-59
2024/03/18 01:07:37;;;;;;;21.80;14.50;;;;;;;14.46;55.78;101445.64;110252;1262;22307;-59
2024/03/18 01:10:05;;;;;;;23.60;15.50;;;;;;;14.46;55.85;101450.34;110582;1257;22374;-59
2024/03/18 01:12:33;;;;;;;18.00;13.50;;;;;;;14.46;55.84;101447.91;110210;1260;23103;-59
2024/03/18 01:15:01;;;;;;;22.00;14.10;;;;;;;14.46;55.75;101440.73;110434;1259;22207;-58
2024/03/18 01:17:28;;;;;;;20.70;14.00;;;;;;;14.45;55.78;101434.48;110251;1262;22420;-58
2024/03/18 01:19:56;;;;;;;21.80;14.00;;;;;;;14.44;55.75;101433.48;109733;1258;1002381;-59
2024/03/18 01:22:24;;;;;;;19.90;14.30;;;;;;;14.43;55.74;101432.60;110459;1259;23055;-59
2024/03/18 01:24:51;;;;;;;23.00;14.50;;;;;;;14.44;55.88;101426.84;110435;1259;22123;-59
2024/03/18 01:27:19;;;;;;;18.70;14.20;;;;;;;14.44;55.78;101428.04;110227;1269;22220;-59
2024/03/18 01:29:48;;;;;;;22.80;14.50;;;;;;;14.45;55.83;101425.05;110548;1259;22384;-59
2024/03/18 01:32:16;;;;;;;19.40;13.90;;;;;;;14.44;55.79;101421.77;110131;1276;22133;-59
2024/03/18 01:34:43;;;;;;;24.50;14.80;;;;;;;14.43;55.89;101419.16;110458;1259;22283;-59
2024/03/18 01:37:11;;;;;;;24.90;14.50;;;;;;;14.44;55.99;101422.30;110258;1256;23062;-59
2024/03/18 01:39:38;;;;;;;18.80;14.50;;;;;;;14.46;56.00;101414.38;110572;1256;22390;-59
2024/03/18 01:42:06;;;;;;;20.40;14.30;;;;;;;14.47;55.96;101413.30;110158;1260;22816;-59
2024/03/18 01:44:33;;;;;;;24.70;14.80;;;;;;;14.49;55.87;101409.05;110449;1257;23042;-59
2024/03/18 01:47:01;;;;;;;20.70;13.10;;;;;;;14.51;55.83;101410.05;110546;1256;22415;-59
2024/03/18 01:49:28;;;;;;;19.80;13.90;;;;;;;14.52;55.88;101406.52;110452;1257;23136;-59
2024/03/18 01:51:55;;;;;;;22.80;14.30;;;;;;;14.52;55.91;101404.09;110172;1262;23241;-59
2024/03/18 01:54:23;;;;;;;20.30;14.40;;;;;;;14.52;55.89;101401.63;110478;1258;22429;-59
2024/03/18 01:56:50;;;;;;;22.40;13.80;;;;;;;14.53;55.87;101403.00;110512;1259;22355;-59
2024/03/18 01:59:17;;;;;;;22.80;14.20;;;;;;;14.52;55.87;101401.29;110448;1269;22396;-59
2024/03/18 02:01:45;;;;;;;20.20;13.80;;;;;;;14.50;55.88;101400.11;110450;1259;22398;-59
2024/03/18 02:04:15;;;;;;;22.10;14.50;;;;;;;14.49;56.11;101397.00;110508;1259;22128;-59
2024/03/18 02:06:43;;;;;;;25.70;14.30;;;;;;;14.48;56.20;101400.02;110468;1259;22442;-59
2024/03/18 02:09:10;;;;;;;19.50;14.20;;;;;;;14.48;56.16;101392.31;110481;1257;22163;-59
2024/03/18 02:11:37;;;;;;;19.60;14.10;;;;;;;14.48;56.24;101390.05;110478;1269;23069;-59
2024/03/18 02:14:15;;;;;;;24.60;13.90;;;;;;;14.48;56.32;101386.73;110453;1257;22284;-59
2024/03/18 02:16:43;;;;;;;24.80;14.60;;;;;;;14.49;56.31;101385.30;110106;1262;22303;-59
2024/03/18 02:19:11;;;;;;;22.50;14.40;;;;;;;14.50;56.37;101387.02;110342;1259;22391;-59
2024/03/18 02:21:38;;;;;;;25.20;14.10;;;;;;;14.52;56.36;101385.59;110531;1257;23124;-59
2024/03/18 02:24:08;;;;;;;21.80;14.90;;;;;;;14.55;56.36;101385.14;110497;1259;23076;-59
2024/03/18 02:26:36;;;;;;;25.80;15.60;;;;;;;14.59;56.30;101385.02;110213;1276;22407;-59
2024/03/18 02:29:04;;;;;;;20.70;13.80;;;;;;;14.61;56.18;101384.44;110515;1276;22346;-59
2024/03/18 02:31:32;;;;;;;23.00;13.60;;;;;;;14.62;56.03;101379.16;110326;1260;22908;-60
2024/03/18 02:33:59;;;;;;;21.30;14.00;;;;;;;14.63;55.96;101377.23;110508;1258;22407;-59
2024/03/18 02:36:27;;;;;;;25.20;14.70;;;;;;;14.63;55.99;101378.09;110153;1261;22980;-59
2024/03/18 02:38:56;;;;;;;22.40;13.90;;;;;;;14.63;55.85;101376.51;110328;1259;22301;-59
2024/03/18 02:41:23;;;;;;;20.00;12.90;;;;;;;14.63;55.76;101374.25;110089;1262;22135;-59
2024/03/18 02:43:51;;;;;;;20.00;13.50;;;;;;;14.62;55.71;101372.02;110569;1259;22098;-59
2024/03/18 02:46:18;;;;;;;19.10;13.40;;;;;;;14.62;55.62;101363.11;110456;1258;22419;-59
2024/03/18 02:48:46;;;;;;;21.00;13.30;;;;;;;14.62;55.51;101370.45;110356;1259;22168;-59
2024/03/18 02:51:13;;;;;;;19.20;13.10;;;;;;;14.61;55.45;101371.70;110402;1259;22360;-59
2024/03/18 02:53:40;;;;;;;19.20;13.10;;;;;;;14.60;55.46;101372.60;110502;1259;22575;-59
2024/03/18 02:56:08;;;;;;;25.40;13.90;;;;;;;14.58;55.36;101366.89;110303;1262;22124;-59
2024/03/18 02:58:35;;;;;;;23.20;14.30;;;;;;;14.57;55.35;101369.02;110476;1270;22363;-59
2024/03/18 03:01:03;;;;;;;19.40;12.50;;;;;;;14.55;55.48;101364.54;110517;1269;22333;-59
2024/03/18 03:03:30;;;;;;;21.60;13.00;;;;;;;14.55;55.45;101366.64;110479;1259;22425;-59
2024/03/18 03:06:00;;;;;;;23.70;13.20;;;;;;;14.55;55.41;101369.60;110514;1260;22304;-59
2024/03/18 03:08:27;;;;;;;22.40;13.40;;;;;;;14.54;55.34;101367.69;110531;1259;22299;-59
2024/03/18 03:10:55;;;;;;;29.60;12.70;;;;;;;14.54;55.36;101361.07;109541;1260;1002455;-59
2024/03/18 03:13:22;;;;;;;20.60;13.10;;;;;;;14.54;55.40;101357.05;109670;1276;1002073;-59
2024/03/18 03:15:50;;;;;;;21.60;13.20;;;;;;;14.55;55.44;101356.51;110177;1260;375611;-59
2024/03/18 03:18:17;;;;;;;19.60;12.80;;;;;;;14.56;55.26;101352.65;110224;1262;22353;-59
2024/03/18 03:20:45;;;;;;;18.70;13.50;;;;;;;14.55;55.27;101356.32;110481;1257;22276;-59
2024/03/18 03:23:12;;;;;;;19.60;13.10;;;;;;;14.56;55.31;101355.45;110479;1276;22351;-59
2024/03/18 03:25:51;;;;;;;23.00;12.30;;;;;;;14.56;55.38;101358.77;110551;1270;22343;-59
2024/03/18 03:28:19;;;;;;;21.00;11.80;;;;;;;14.56;55.35;101359.27;110545;1258;22148;-59
2024/03/18 03:30:46;;;;;;;20.40;12.20;;;;;;;14.55;55.36;101357.89;110502;1260;23095;-59
2024/03/18 03:33:14;;;;;;;20.30;12.90;;;;;;;14.56;55.40;101356.83;110444;1254;22436;-59
2024/03/18 03:35:41;;;;;;;21.20;13.10;;;;;;;14.57;55.41;101352.09;110456;1260;22153;-59
2024/03/18 03:38:09;;;;;;;15.70;12.10;;;;;;;14.58;55.44;101347.86;110486;1260;22793;-59
2024/03/18 03:40:36;;;;;;;19.50;12.50;;;;;;;14.60;55.39;101344.48;110551;1259;23014;-59
2024/03/18 03:43:03;;;;;;;22.70;13.20;;;;;;;14.63;55.42;101339.88;110532;1259;22136;-59
2024/03/18 03:45:31;;;;;;;22.10;12.80;;;;;;;14.65;55.32;101337.00;110310;1257;22124;-59
2024/03/18 03:47:58;;;;;;;20.30;13.20;;;;;;;14.67;55.29;101337.30;110460;1259;22781;-59
2024/03/18 03:50:26;;;;;;;19.40;13.20;;;;;;;14.67;55.14;101335.89;110442;1272;22072;-59
2024/03/18 03:52:53;;;;;;;17.40;12.00;;;;;;;14.67;55.06;101334.34;110452;1258;23077;-59
2024/03/18 03:55:21;;;;;;;19.90;11.90;;;;;;;14.66;55.03;101332.98;110337;1260;22134;-59
2024/03/18 03:57:48;;;;;;;18.60;12.40;;;;;;;14.63;54.97;101329.21;110513;1259;22341;-59
2024/03/18 04:00:16;;;;;;;16.90;12.00;;;;;;;14.62;54.92;101331.52;110557;1260;22366;-59
2024/03/18 04:02:43;;;;;;;19.00;11.80;;;;;;;14.61;54.94;101335.38;110428;1258;22364;-59
2024/03/18 04:05:11;;;;;;;16.80;11.70;;;;;;;14.61;54.99;101340.27;110250;1264;22414;-61
2024/03/18 04:07:38;;;;;;;22.30;12.20;;;;;;;14.61;55.16;101337.85;110489;1259;22153;-59
2024/03/18 04:10:06;;;;;;;18.30;12.10;;;;;;;14.61;55.11;101342.36;110286;1260;23070;-59
2024/03/18 04:12:33;;;;;;;18.70;11.90;;;;;;;14.61;55.24;101347.23;110503;1258;23103;-59
2024/03/18 04:15:02;;;;;;;19.20;12.50;;;;;;;14.64;55.31;101351.89;110546;1259;23211;-60
2024/03/18 04:17:31;;;;;;;21.10;12.80;;;;;;;14.65;55.31;101349.92;110193;1262;22439;-59
2024/03/18 04:19:59;;;;;;;16.90;12.20;;;;;;;14.68;55.24;101352.11;110476;1261;22440;-59
2024/03/18 04:22:26;;;;;;;18.30;12.40;;;;;;;14.71;55.15;101357.27;110513;1257;22146;-59
2024/03/18 04:24:53;;;;;;;18.30;12.70;;;;;;;14.73;55.12;101359.86;110435;1259;22100;-59
2024/03/18 04:27:23;;;;;;;20.10;12.60;;;;;;;14.75;55.22;101368.34;110460;1258;22411;-59
2024/03/18 04:29:50;;;;;;;17.30;12.70;;;;;;;14.78;55.22;101375.25;110459;1259;22440;-59
2024/03/18 04:32:20;;;;;;;20.60;12.60;;;;;;;14.79;55.16;101383.06;110232;1260;23179;-59
2024/03/18 04:34:47;;;;;;;13.70;9.40;;;;;;;14.80;55.18;101391.06;110422;1259;22787;-59
2024/03/18 04:37:14;;;;;;;11.50;8.00;;;;;;;14.80;55.06;101381.45;110438;1260;22858;-60
2024/03/18 04:39:42;;;;;;;9.30;5.20;;;;;;;14.76;54.51;101373.71;110237;1262;22288;-59
2024/03/18 04:42:10;;;;;;;5.20;4.70;;;;;;;14.62;54.20;101374.29;110470;1260;22142;-59
2024/03/18 04:44:38;;;;;;;6.00;4.20;;;;;;;14.47;54.05;101362.52;110506;1264;23110;-59
2024/03/18 04:47:05;;;;;;;6.50;3.70;;;;;;;14.31;54.11;101356.67;110444;1260;22397;-60
2024/03/18 04:49:33;;;;;;;5.70;4.10;;;;;;;14.17;54.39;101363.65;110462;1263;22119;-59
2024/03/18 04:52:00;;;;;;;6.20;4.20;;;;;;;14.07;54.67;101372.14;110483;1258;22179;-59
2024/03/18 04:54:27;;;;;;;5.00;3.70;;;;;;;14.02;54.92;101378.03;110481;1259;23003;-59
2024/03/18 04:56:56;;;;;;;3.80;3.40;;;;;;;13.98;54.92;101379.85;110364;1264;22133;-59
2024/03/18 04:59:24;;;;;;;3.00;2.60;;;;;;;13.94;54.89;101388.85;110447;1258;22282;-59
2024/03/18 05:01:52;;;;;;;3.80;3.20;;;;;;;13.87;54.77;101392.54;110501;1270;22916;-59
2024/03/18 05:04:19;;;;;;;3.10;2.60;;;;;;;13.77;54.85;101399.75;110416;1260;22117;-59
2024/03/18 05:06:47;;;;;;;3.30;3.00;;;;;;;13.68;54.87;101404.17;110559;1260;22442;-59
2024/03/18 05:09:14;;;;;;;4.60;2.90;;;;;;;13.62;55.07;101407.98;110442;1258;22107;-59
2024/03/18 05:11:42;;;;;;;3.20;2.90;;;;;;;13.57;55.23;101413.31;110470;1259;22387;-59
2024/03/18 05:14:09;;;;;;;4.00;3.40;;;;;;;13.54;55.33;101424.20;110490;1256;22258;-58
2024/03/18 05:16:39;;;;;;;4.30;3.50;;;;;;;13.52;55.32;101425.81;110200;1267;22347;-59
2024/03/18 05:19:06;;;;;;;3.60;3.00;;;;;;;13.47;55.35;101427.86;109810;1258;1002578;-59
2024/03/18 05:21:34;;;;;;;4.00;3.40;;;;;;;13.46;55.26;101428.91;109750;1259;1002426;-59
2024/03/18 05:24:01;;;;;;;4.40;3.50;;;;;;;13.41;55.14;101428.88;110435;1258;22479;-59
2024/03/18 05:26:31;;;;;;;3.60;3.30;;;;;;;13.37;55.29;101429.13;109722;1276;1002780;-59
2024/03/18 05:28:58;;;;;;;5.00;3.20;;;;;;;13.35;55.28;101432.48;110479;1266;22433;-59
2024/03/18 05:31:29;;;;;;;3.90;3.50;;;;;;;13.32;55.29;101427.86;110541;1257;22894;-58
2024/03/18 05:34:00;;;;;;;3.90;3.50;;;;;;;13.28;55.31;101430.55;110561;1258;22268;-59
2024/03/18 05:36:28;;;;;;;3.80;3.10;;;;;;;13.26;55.31;101431.47;110469;1267;22433;-58
2024/03/18 05:38:55;;;;;;;3.70;3.30;;;;;;;13.21;55.38;101430.35;110417;1259;22297;-58
2024/03/18 05:41:23;;;;;;;3.40;3.10;;;;;;;13.14;55.45;101429.30;110464;1267;22790;-59
2024/03/18 05:43:51;;;;;;;3.60;2.90;;;;;;;13.07;55.42;101433.27;110540;1258;22369;-59
2024/03/18 05:46:18;;;;;;;3.80;3.10;;;;;;;13.01;55.30;101434.40;110128;1261;22372;-59
2024/03/18 05:48:46;;;;;;;3.00;2.70;;;;;;;12.98;55.44;101441.44;110309;1260;22314;-59
2024/03/18 05:51:14;;;;;;;3.30;3.00;;;;;;;12.96;55.41;101440.60;109712;1257;1002854;-60
2024/03/18 05:53:41;;;;;;;4.50;3.30;;;;;;;12.92;55.39;101437.38;109640;1260;1002116;-59
2024/03/18 05:56:09;;;;;;;3.60;3.10;;;;;;;12.88;55.49;101431.72;110432;1259;22363;-59
2024/03/18 05:58:39;;;;;;;2.80;2.50;;;;;;;12.84;55.42;101437.02;110505;1254;22300;-59
2024/03/18 06:01:13;;;;;;;4.10;3.30;;;;;;;12.83;55.73;101446.27;110495;1257;22287;-59
2024/03/18 06:03:41;;;;;;;3.80;3.20;;;;;;;12.83;55.92;101445.23;110461;1257;22112;-58
2024/03/18 06:06:09;;;;;;;4.10;3.20;;;;;;;12.83;55.93;101446.95;110419;1257;22272;-58
2024/03/18 06:08:38;;;;;;;3.70;2.90;;;;;;;12.84;55.97;101446.95;110431;1260;22105;-59
2024/03/18 06:11:06;;;;;;;4.00;2.80;;;;;;;12.84;56.12;101447.29;110485;1257;22958;-59
2024/03/18 06:13:33;;;;;;;3.60;2.90;;;;;;;12.85;56.19;101446.41;110497;1257;22368;-59
2024/03/18 06:16:01;;;;;;;3.00;2.70;;;;;;;12.88;56.14;101443.20;110428;1255;22403;-59
2024/03/18 06:18:29;;;;;;;3.00;2.70;;;;;;;12.88;56.05;101447.02;110510;1257;22108;-58
2024/03/18 06:20:56;;;;;;;2.90;2.60;;;;;;;12.89;56.14;101452.77;110400;1259;22397;-58
2024/03/18 06:23:30;;;;;;;2.90;2.50;;;;;;;12.92;56.18;101454.80;110211;1260;23102;-58
2024/03/18 06:25:58;;;;;;;2.20;2.00;;;;;;;12.94;56.16;101459.81;110457;1259;22285;-59
2024/03/18 06:28:26;;;;;;;3.70;2.80;;;;;;;12.95;56.22;101466.21;110523;1254;22790;-58
2024/03/18 06:30:53;;;;;;;3.20;2.40;;;;;;;12.99;56.24;101463.52;110451;1260;22119;-59
2024/03/18 06:33:24;;;;;;;2.90;1.70;;;;;;;13.02;55.85;101458.95;110521;1257;22910;-58
2024/03/18 06:35:53;;;;;;;2.40;2.10;;;;;;;13.00;55.56;101458.96;110446;1276;22752;-58
2024/03/18 06:38:22;;;;;;;2.60;2.00;;;;;;;12.99;55.45;101456.73;110444;1276;22159;-58
2024/03/18 06:40:50;;;;;;;2.00;1.80;;;;;;;12.97;55.30;101455.73;110393;1269;22126;-59
2024/03/18 06:43:18;;;;;;;2.50;2.30;;;;;;;12.95;55.23;101456.14;110482;1254;22166;-59
2024/03/18 06:45:45;;;;;;;2.90;2.00;;;;;;;12.93;55.25;101456.85;110569;1257;23206;-59
2024/03/18 06:48:13;;;;;;;3.20;2.40;;;;;;;12.91;55.34;101450.09;110305;1276;22349;-58
2024/03/18 06:50:40;;;;;;;3.20;2.40;;;;;;;12.91;55.10;101459.17;110389;1276;22424;-59
2024/03/18 06:53:07;;;;;;;3.20;2.40;;;;;;;12.87;54.83;101463.95;110478;1276;22594;-60
2024/03/18 06:55:35;;;;;;;2.80;2.10;;;;;;;12.83;54.96;101463.33;110279;1272;22138;-59
2024/03/18 06:58:03;;;;;;;5.40;2.40;;;;;;;12.80;54.99;101460.95;110257;1261;22150;-59
2024/03/18 07:00:31;;;;;;;2.70;2.50;;;;;;;12.79;55.06;101461.69;110528;1269;22498;-59
2024/03/18 07:02:58;;;;;;;2.90;2.30;;;;;;;12.80;54.96;101464.08;110421;1257;22276;-59
2024/03/18 07:05:26;;;;;;;3.40;3.10;;;;;;;12.83;54.89;101464.20;110451;1269;22221;-58
2024/03/18 07:07:54;;;;;;;2.90;2.60;;;;;;;12.82;54.84;101465.78;110435;1257;22816;-58
2024/03/18 07:10:22;;;;;;;3.50;3.10;;;;;;;12.78;55.03;101464.13;110403;1270;22829;-59
2024/03/18 07:12:53;;;;;;;4.70;3.60;;;;;;;12.77;55.11;101463.63;110412;1276;22277;-60
2024/03/18 07:15:20;;;;;;;4.30;2.70;;;;;;;12.75;54.67;101462.63;110410;1268;22439;-58
2024/03/18 07:17:47;;;;;;;4.10;3.70;;;;;;;12.69;54.65;101462.22;110200;1260;22299;-59
2024/03/18 07:20:15;;;;;;;4.60;3.00;;;;;;;12.65;54.71;101462.65;110459;1257;22303;-59
2024/03/18 07:22:46;;;;;;;3.30;3.10;;;;;;;12.64;54.86;101465.45;110429;1260;22928;-59
2024/03/18 07:25:22;;;;;;;3.70;3.40;;;;;;;12.64;54.78;101465.96;110403;1269;22358;-58
2024/03/18 07:27:50;;;;;;;3.40;3.10;;;;;;;12.63;54.81;101466.17;110321;1258;22441;-58
2024/03/18 07:30:17;;;;;;;4.50;3.70;;;;;;;12.61;54.91;101453.14;110443;1254;23197;-58
2024/03/18 07:32:46;;;;;;;3.70;3.40;;;;;;;12.62;54.88;101444.95;110240;1269;22975;-58
2024/03/18 07:35:14;;;;;;;3.10;2.80;;;;;;;12.62;54.93;101443.72;110476;1269;22915;-59
2024/03/18 07:37:42;;;;;;;2.60;2.40;;;;;;;12.66;55.01;101441.90;110445;1269;22369;-58
2024/03/18 07:40:11;;;;;;;2.50;2.30;;;;;;;12.71;54.87;101443.73;110407;1270;22097;-58
2024/03/18 07:42:41;;;;;;;3.70;2.20;;;;;;;12.75;54.68;101452.00;110483;1273;22142;-59
2024/03/18 07:45:09;;;;;;;2.60;2.00;;;;;;;12.80;54.73;101459.56;110401;1269;22226;-58
2024/03/18 07:47:37;;;;;;;2.80;2.40;;;;;;;12.86;54.55;101461.54;110405;1273;22412;-58
2024/03/18 07:50:05;;;;;;;2.40;2.10;;;;;;;12.93;54.57;101469.59;110414;1273;22154;-58
2024/03/18 07:52:32;;;;;;;2.00;1.90;;;;;;;12.98;54.30;101465.80;109594;1270;1002469;-59
2024/03/18 07:55:00;;;;;;;2.00;1.80;;;;;;;13.02;54.11;101468.86;110427;1270;22445;-58
2024/03/18 07:57:28;;;;;;;1.70;1.60;;;;;;;13.09;54.17;101475.55;110384;1273;22439;-59
2024/03/18 07:59:56;;;;;;;1.70;1.50;;;;;;;13.17;53.82;101477.49;110495;1270;22311;-58
2024/03/18 08:02:23;;;;;;;1.50;1.40;;;;;;;13.18;53.13;101474.67;110456;1273;22439;-58
2024/03/18 08:04:52;;;;;;;2.00;1.60;;;;;;;13.20;53.24;101467.32;110306;1274;22341;-58
2024/03/18 08:07:20;;;;;;;2.40;1.50;;;;;;;13.28;53.19;101469.23;110288;1273;22455;-58
2024/03/18 08:09:47;;;;;;;1.60;1.50;;;;;;;13.37;52.48;101466.79;110480;1276;22368;-58
2024/03/18 08:12:15;;;;;;;2.10;1.50;;;;;;;13.39;52.12;101463.59;109655;1269;1002453;-58
2024/03/18 08:14:44;;;;;;;1.40;1.10;;;;;;;13.42;52.21;101464.39;110369;1276;22239;-59
2024/03/18 08:17:11;;;;;;;1.80;1.50;;;;;;;13.46;52.02;101457.85;110401;1269;22398;-58
2024/03/18 08:19:39;;;;;;;1.70;1.60;;;;;;;13.50;51.70;101454.09;110442;1273;22364;-58
2024/03/18 08:22:06;;;;;;;1.40;1.30;;;;;;;13.51;51.29;101454.06;110408;1270;22434;-58
2024/03/18 08:24:46;;;;;;;1.60;1.40;;;;;;;13.49;51.22;101454.48;110231;1276;22149;-58
2024/03/18 08:27:14;;;;;;;1.90;1.70;;;;;;;13.48;51.30;101455.18;110445;1274;22442;-58
2024/03/18 08:29:41;;;;;;;1.80;1.50;;;;;;;13.48;51.01;101459.73;110389;1270;22353;-58
2024/03/18 08:32:09;;;;;;;2.50;1.40;;;;;;;13.48;51.34;101452.56;110468;1276;22227;-58
2024/03/18 08:34:37;;;;;;;1.60;1.40;;;;;;;13.53;51.37;101450.20;110521;1268;23130;-58
2024/03/18 08:37:05;;;;;;;1.70;1.40;;;;;;;13.57;51.46;101468.06;109685;1270;1002915;-58
2024/03/18 08:39:32;;;;;;;1.70;1.40;;;;;;;13.66;51.57;101474.65;110445;1276;22143;-58
2024/03/18 08:42:00;;;;;;;2.60;1.20;;;;;;;13.78;51.37;101486.41;109705;1269;1006620;-58
2024/03/18 08:44:27;;;;;;;1.50;1.20;;;;;;;13.87;51.03;101491.95;109600;1275;1002179;-58
2024/03/18 08:46:54;;;;;;;2.10;1.70;;;;;;;13.94;51.00;101489.33;110121;1273;22349;-58
2024/03/18 08:49:23;;;;;;;1.80;1.40;;;;;;;13.99;50.72;101485.54;110437;1276;22343;-58
2024/03/18 08:51:51;;;;;;;2.10;1.60;;;;;;;13.99;50.29;101490.42;110420;1270;22135;-58
2024/03/18 08:54:19;;;;;;;2.10;1.50;;;;;;;13.92;50.11;101495.13;109691;1269;1002945;-59
2024/03/18 08:56:47;;;;;;;1.40;1.30;;;;;;;13.83;49.97;101502.49;110446;1270;22886;-58
2024/03/18 08:59:14;;;;;;;1.30;1.20;;;;;;;13.75;49.98;101503.04;110429;1270;22371;-58
2024/03/18 09:01:42;;;;;;;1.40;1.30;;;;;;;13.67;50.20;101506.71;110402;1269;22372;-58
2024/03/18 09:04:11;;;;;;;1.20;1.10;;;;;;;13.64;50.35;101508.18;110421;1276;22262;-58
2024/03/18 09:06:38;;;;;;;1.20;1.10;;;;;;;13.61;50.11;101504.06;110427;1269;22903;-58
2024/03/18 09:09:06;;;;;;;1.20;1.10;;;;;;;13.54;50.17;101497.42;110179;1272;22309;-58
2024/03/18 09:11:33;;;;;;;1.60;1.20;;;;;;;13.49;50.47;101491.77;109614;1269;1002563;-58
2024/03/18 09:14:01;;;;;;;1.20;0.90;;;;;;;13.50;50.63;101496.61;109633;1273;1002266;-58
2024/03/18 09:16:28;;;;;;;0.90;0.70;;;;;;;13.55;50.70;101495.30;110428;1276;23030;-58
2024/03/18 09:18:56;;;;;;;1.50;0.90;;;;;;;13.60;50.63;101494.85;109492;1276;1002773;-58
2024/03/18 09:21:23;;;;;;;0.70;0.70;;;;;;;13.66;50.52;101495.76;110400;1270;22402;-58
2024/03/18 09:23:51;;;;;;;0.90;0.80;;;;;;;13.68;50.06;101492.20;110215;1272;22399;-59
2024/03/18 09:26:18;;;;;;;1.30;1.00;;;;;;;13.65;50.08;101491.92;110455;1269;22563;-58
2024/03/18 09:28:46;;;;;;;2.60;1.50;;;;;;;13.68;50.49;101487.66;110491;1269;22309;-58
2024/03/18 09:31:13;;;;;;;0.80;0.80;;;;;;;13.75;50.26;101484.21;110511;1268;22912;-58
2024/03/18 09:33:41;;;;;;;1.00;0.90;;;;;;;13.76;49.87;101480.52;110485;1272;22121;-58
2024/03/18 09:36:08;;;;;;;1.20;0.80;;;;;;;13.80;49.87;101479.73;110366;1269;22191;-58
2024/03/18 09:38:36;;;;;;;1.00;0.80;;;;;;;13.84;49.88;101483.96;110294;1272;22748;-58
2024/03/18 09:41:05;;;;;;;1.00;0.90;;;;;;;13.91;49.85;101478.77;110398;1273;22395;-58
2024/03/18 09:43:35;;;;;;;1.20;1.10;;;;;;;13.98;49.64;101471.80;110463;1276;22459;-58
2024/03/18 09:46:04;;;;;;;1.10;1.00;;;;;;;14.06;50.07;101478.23;110382;1269;22153;-59
2024/03/18 09:48:32;;;;;;;1.20;1.10;;;;;;;14.18;50.01;101476.70;110425;1269;23053;-59
2024/03/18 09:51:00;;;;;;;1.30;1.20;;;;;;;14.27;49.34;101472.45;109729;1269;1002543;-58
2024/03/18 09:53:27;;;;;;;1.50;1.40;;;;;;;14.28;49.18;101465.11;110303;1269;22446;-58
2024/03/18 09:55:55;;;;;;;1.20;1.10;;;;;;;14.31;49.32;101467.68;110471;1272;23077;-58
2024/03/18 09:58:25;;;;;;;1.10;1.00;;;;;;;14.37;49.47;101462.62;110251;1276;22750;-58
2024/03/18 10:00:52;;;;;;;1.30;1.20;;;;;;;14.42;49.11;101456.55;110385;1276;22262;-58
2024/03/18 10:03:20;;;;;;;1.20;1.10;;;;;;;14.46;49.04;101457.33;110357;1275;22254;-58
2024/03/18 10:05:48;;;;;;;1.30;1.20;;;;;;;14.53;48.96;101459.40;110398;1269;22351;-58
2024/03/18 10:08:16;;;;;;;1.80;1.70;;;;;;;14.58;48.50;101453.84;110397;1276;23187;-58
2024/03/18 10:10:46;;;;;;;1.80;1.40;;;;;;;14.60;48.63;101448.91;110467;1276;22420;-58
2024/03/18 10:13:14;;;;;;;1.30;1.20;;;;;;;14.65;48.87;101449.81;110432;1269;22285;-59
2024/03/18 10:15:42;;;;;;;2.50;1.20;;;;;;;14.74;48.81;101450.46;110385;1276;22439;-58
2024/03/18 10:18:11;;;;;;;1.30;1.20;;;;;;;14.80;48.90;101447.48;110466;1269;22367;-58
2024/03/18 10:20:38;;;;;;;1.50;1.40;;;;;;;14.92;48.03;101445.75;110430;1269;22146;-58
2024/03/18 10:23:10;;;;;;;1.40;1.30;;;;;;;14.93;47.94;101442.92;110209;1272;22312;-58
2024/03/18 10:25:38;;;;;;;1.60;1.40;;;;;;;14.93;47.99;101449.02;110381;1270;22949;-58
2024/03/18 10:28:09;;;;;;;1.70;1.40;;;;;;;14.97;47.90;101447.52;110449;1269;22277;-58
2024/03/18 10:30:37;;;;;;;1.40;1.30;;;;;;;15.01;48.01;101447.05;110162;1276;22152;-58
2024/03/18 10:33:06;;;;;;;2.00;1.70;;;;;;;15.07;47.77;101442.52;110421;1269;22363;-58
2024/03/18 10:35:34;;;;;;;1.30;1.20;;;;;;;15.10;47.58;101434.38;110174;1276;22113;-58
2024/03/18 10:38:03;;;;;;;1.90;1.50;;;;;;;15.11;47.45;101423.52;110470;1269;22403;-58
2024/03/18 10:40:38;;;;;;;1.60;1.50;;;;;;;15.09;46.79;101418.34;110455;1268;22361;-58
2024/03/18 10:43:11;;;;;;;2.20;1.70;;;;;;;15.00;46.92;101419.83;110383;1276;22361;-58
2024/03/18 10:45:48;;;;;;;3.10;1.70;;;;;;;14.92;46.84;101417.29;110461;1269;22445;-58
2024/03/18 10:48:16;;;;;;;2.00;1.80;;;;;;;14.85;46.96;101417.48;110375;1269;22389;-58
2024/03/18 10:50:45;;;;;;;2.20;1.70;;;;;;;14.83;47.16;101419.27;110337;1276;23111;-58
2024/03/18 10:53:22;;;;;;;1.90;1.70;;;;;;;14.84;46.91;101421.55;110411;1276;22346;-59
2024/03/18 10:55:52;;;;;;;1.90;1.70;;;;;;;14.81;46.78;101431.04;110439;1276;22894;-59
2024/03/18 10:58:26;;;;;;;2.40;2.10;;;;;;;14.77;46.69;101427.46;110406;1269;23255;-58
2024/03/18 11:00:53;;;;;;;2.20;2.00;;;;;;;14.79;46.91;101431.27;109594;1275;1002337;-58
2024/03/18 11:03:23;;;;;;;2.10;1.90;;;;;;;14.81;46.44;101430.35;110454;1272;22304;-58
2024/03/18 11:05:55;;;;;;;2.70;1.90;;;;;;;14.81;46.42;101422.83;110383;1276;22352;-58
2024/03/18 11:08:23;;;;;;;;;;;;;;;14.81;46.07;101415.31;110478;1269;22452;-58
2024/03/18 11:10:56;;;;;;;2.40;2.20;;;;;;;14.78;45.83;101422.93;110374;1276;22116;-58
2024/03/18 11:13:34;;;;;;;2.10;1.90;;;;;;;14.74;46.00;101432.30;110396;1276;22416;-58